Time;durP1;ratioP1;P1;durP2;ratioP2;P2;SDS_P1;SDS_P2;PMS_P1;PMS_P2;Temp;Humidity;BMP_temperature;BMP_pressure;BME280_temperature;BME280_humidity;BME280_pressure;Samples;Min_cycle;Max_cycle;Signal;HPM_P1;HPM_P2
2022/04/11 00:01:30;;;;;;;;;5.00;4.00;;;;;12.18;43.45;101136.31;5061754;28;46273;-60
2022/04/11 00:03:56;;;;;;;;;4.75;4.75;;;;;12.23;43.77;101135.22;5062053;28;45256;-60
2022/04/11 00:06:21;;;;;;;;;5.00;4.00;;;;;12.19;43.53;101136.22;5061453;28;45409;-60
2022/04/11 00:08:46;;;;;;;;;6.50;5.00;;;;;12.17;43.60;101131.88;5061692;28;45771;-60
2022/04/11 00:11:12;;;;;;;;;5.00;5.00;;;;;12.12;43.88;101123.13;5059088;28;45949;-60
2022/04/11 00:13:37;;;;;;;;;5.00;4.75;;;;;12.14;43.90;101135.50;5061884;28;45396;-60
2022/04/11 00:16:03;;;;;;;;;3.50;3.50;;;;;12.16;43.82;101132.78;5061470;28;46146;-61
2022/04/11 00:18:28;;;;;;;;;4.25;4.25;;;;;12.15;43.96;101131.91;5061697;28;45385;-60
2022/04/11 00:20:54;;;;;;;;;3.00;3.00;;;;;12.10;43.51;101125.84;5061357;28;45391;-60
2022/04/11 00:23:19;;;;;;;;;6.50;5.00;;;;;12.13;43.88;101130.19;5061191;28;45222;-60
2022/04/11 00:25:45;;;;;;;;;4.00;4.00;;;;;12.13;44.00;101122.16;5060356;28;45306;-60
2022/04/11 00:28:10;;;;;;;;;5.00;3.75;;;;;12.16;43.65;101114.03;5061441;28;45306;-60
2022/04/11 00:30:35;;;;;;;;;4.00;3.75;;;;;12.16;44.12;101109.59;5061336;28;45680;-60
2022/04/11 00:33:02;;;;;;;;;6.00;5.50;;;;;12.15;43.88;101109.63;5061320;28;45411;-60
2022/04/11 00:35:27;;;;;;;;;4.00;4.00;;;;;12.03;43.63;101111.78;5061515;28;45409;-60
2022/04/11 00:37:53;;;;;;;;;3.75;3.75;;;;;11.97;43.80;101103.94;5061230;28;45329;-60
2022/04/11 00:40:19;;;;;;;;;5.75;5.75;;;;;11.93;43.60;101096.97;5054856;28;46090;-60
2022/04/11 00:42:48;;;;;;;;;4.00;4.00;;;;;11.85;44.03;101074.91;5051325;28;45766;-60
2022/04/11 00:45:13;;;;;;;;;5.25;5.00;;;;;11.85;43.80;101081.13;5061399;28;45342;-60
2022/04/11 00:47:39;;;;;;;;;4.75;4.75;;;;;11.81;43.90;101071.44;5059896;28;45422;-60
2022/04/11 00:50:08;;;;;;;;;1.75;1.75;;;;;11.87;44.03;101070.38;5059758;28;46141;-60
2022/04/11 00:52:37;;;;;;;;;4.50;4.50;;;;;11.79;44.40;101072.41;5060952;28;45410;-60
2022/04/11 00:55:03;;;;;;;;;3.00;3.00;;;;;11.76;43.77;101067.16;5061081;28;45334;-60
2022/04/11 00:57:28;;;;;;;;;3.00;3.00;;;;;11.74;44.46;101066.34;5071403;28;45415;-60
2022/04/11 00:59:54;;;;;;;;;4.00;3.00;;;;;11.73;44.35;101061.91;5060649;28;46130;-60
2022/04/11 01:02:20;;;;;;;;;2.50;2.50;;;;;11.70;44.81;101052.19;5056231;28;45819;-60
2022/04/11 01:04:45;;;;;;;;;4.50;4.00;;;;;11.71;44.59;101056.63;5056364;28;45253;-60
2022/04/11 01:07:10;;;;;;;;;2.00;2.00;;;;;11.73;44.55;101041.41;5060973;28;45279;-61
2022/04/11 01:09:36;;;;;;;;;5.75;4.75;;;;;11.79;44.70;101045.66;5060058;28;46298;-61
2022/04/11 01:12:02;;;;;;;;;5.00;4.25;;;;;11.81;44.40;101038.47;5059502;28;45463;-61
2022/04/11 01:14:28;;;;;;;;;5.00;5.00;;;;;11.76;44.20;101027.03;5060749;28;45309;-61
2022/04/11 01:16:54;;;;;;;;;4.00;4.00;;;;;11.81;44.50;101022.41;5060928;28;45191;-60
2022/04/11 01:19:20;;;;;;;;;4.75;4.25;;;;;11.76;44.51;101019.00;5060125;28;45929;-61
2022/04/11 01:21:47;;;;;;;;;2.00;2.00;;;;;11.73;44.56;101011.97;5060379;28;45438;-60
2022/04/11 01:24:13;;;;;;;;;4.00;4.00;;;;;11.70;44.12;101013.88;5063337;28;45516;-61
2022/04/11 01:26:39;;;;;;;;;3.50;3.50;;;;;11.73;44.52;101019.13;5058654;28;45611;-61
2022/04/11 01:29:08;;;;;;;;;4.25;3.00;;;;;11.70;44.81;101006.72;5059384;28;45294;-61
2022/04/11 01:31:33;;;;;;;;;4.00;4.00;;;;;11.76;44.35;101005.63;5060652;28;45413;-61
2022/04/11 01:33:59;;;;;;;;;6.75;4.75;;;;;11.73;44.23;100997.72;5060219;28;45137;-61
2022/04/11 01:36:24;;;;;;;;;6.25;4.50;;;;;11.71;44.68;100996.91;5060408;28;45474;-61
2022/04/11 01:38:50;;;;;;;;;6.00;5.25;;;;;11.68;44.27;100987.19;5058716;28;45811;-60
2022/04/11 01:41:16;;;;;;;;;4.00;4.00;;;;;11.65;44.19;100989.97;5047748;28;45358;-61
2022/04/11 01:43:41;;;;;;;;;3.00;3.00;;;;;11.65;44.32;100995.31;5060564;28;45354;-61
2022/04/11 01:46:06;;;;;;;;;2.75;2.25;;;;;11.58;44.05;100983.09;5059994;28;45453;-61
2022/04/11 01:48:32;;;;;;;;;2.75;2.75;;;;;11.55;43.71;100985.84;5059137;28;46179;-60
2022/04/11 01:50:57;;;;;;;;;3.50;3.00;;;;;11.53;44.39;100977.88;5060330;28;45387;-61
2022/04/11 01:53:22;;;;;;;;;3.75;3.75;;;;;11.57;44.32;100981.31;5073705;28;45343;-61
2022/04/11 01:55:48;;;;;;;;;3.75;3.75;;;;;11.55;43.99;100976.03;5057916;28;45546;-61
2022/04/11 01:58:15;;;;;;;;;2.50;1.75;;;;;11.55;43.77;100976.03;5054765;28;46357;-61
2022/04/11 02:00:40;;;;;;;;;5.00;3.25;;;;;11.52;44.09;100978.78;5053499;28;45528;-61
2022/04/11 02:03:07;;;;;;;;;5.25;3.00;;;;;11.48;44.14;100972.66;5055228;28;45366;-60
2022/04/11 02:05:34;;;;;;;;;4.75;4.00;;;;;11.48;43.91;100975.34;5060197;28;45230;-61
2022/04/11 02:08:00;;;;;;;;;1.25;1.25;;;;;11.48;43.94;100971.81;5059591;28;45602;-61
2022/04/11 02:10:26;;;;;;;;;5.00;4.00;;;;;11.40;43.80;100969.38;5070176;28;45739;-61
2022/04/11 02:12:52;;;;;;;;;4.00;3.00;;;;;11.40;44.45;100972.03;5059676;28;45442;-61
2022/04/11 02:15:18;;;;;;;;;3.25;3.25;;;;;11.36;44.08;100966.84;5057978;28;45239;-60
2022/04/11 02:17:46;;;;;;;;;2.00;2.00;;;;;11.32;43.66;100966.06;5059442;28;45402;-61
2022/04/11 02:20:12;;;;;;;;;3.75;3.75;;;;;11.26;44.24;100958.22;5059738;28;45470;-60
2022/04/11 02:22:49;;;;;;;;;4.00;4.00;;;;;11.24;44.10;100954.75;5057492;28;45530;-61
2022/04/11 02:25:16;;;;;;;;;3.50;3.50;;;;;11.19;44.16;100946.00;5059496;28;45665;-61
2022/04/11 02:27:42;;;;;;;;;4.75;3.00;;;;;11.08;43.84;100933.84;5059107;28;45363;-60
2022/04/11 02:30:09;;;;;;;;;2.75;2.00;;;;;11.16;44.09;100941.66;5059595;28;45311;-61
2022/04/11 02:32:34;;;;;;;;;4.00;3.00;;;;;11.16;44.36;100946.09;5059162;28;45381;-60
2022/04/11 02:34:59;;;;;;;;;3.25;3.25;;;;;11.11;43.73;100938.25;5059891;28;45229;-60
2022/04/11 02:37:25;;;;;;;;;2.00;2.00;;;;;11.09;43.69;100943.63;5059170;28;46244;-61
2022/04/11 02:39:50;;;;;;;;;2.25;2.25;;;;;11.09;44.24;100946.31;5050320;28;45242;-60
2022/04/11 02:42:22;;;;;;;;;4.00;3.00;;;;;11.11;44.13;100941.78;5055424;28;45336;-60
2022/04/11 02:44:48;;;;;;;;;1.50;1.50;;;;;11.12;44.39;100931.97;5059658;28;45350;-60
2022/04/11 02:47:13;;;;;;;;;2.00;2.00;;;;;11.13;43.97;100923.91;5059135;28;45453;-61
2022/04/11 02:49:38;;;;;;;;;2.50;2.50;;;;;11.10;44.28;100931.16;5059665;28;45411;-61
2022/04/11 02:52:04;;;;;;;;;4.25;3.00;;;;;11.12;44.17;100938.16;5058485;28;45430;-61
2022/04/11 02:54:29;;;;;;;;;3.00;2.25;;;;;11.07;43.63;100917.88;5054605;28;45323;-61
2022/04/11 02:56:55;;;;;;;;;4.50;3.00;;;;;11.03;43.80;100913.56;5056194;28;45414;-62
2022/04/11 02:59:20;;;;;;;;;2.50;2.50;;;;;11.00;44.26;100908.31;5059437;28;45346;-61
2022/04/11 03:01:45;;;;;;;;;1.25;1.25;;;;;11.00;43.80;100898.50;5059541;28;45290;-61
2022/04/11 03:04:11;;;;;;;;;3.00;3.00;;;;;11.05;43.83;100898.34;5059259;28;45240;-61
2022/04/11 03:06:36;;;;;;;;;2.00;2.00;;;;;10.99;43.64;100887.84;5058862;28;45284;-61
2022/04/11 03:09:02;;;;;;;;;3.00;2.00;;;;;11.00;43.40;100887.81;5059159;28;45413;-61
2022/04/11 03:11:27;;;;;;;;;2.75;2.75;;;;;11.02;44.13;100891.31;5059103;28;45327;-61
2022/04/11 03:13:52;;;;;;;;;4.25;4.00;;;;;11.00;43.59;100886.94;5060778;28;45310;-61
2022/04/11 03:16:17;;;;;;;;;3.00;3.00;;;;;11.00;43.93;100885.16;5059666;28;46187;-61
2022/04/11 03:18:43;;;;;;;;;3.00;3.00;;;;;10.94;43.77;100879.97;5062673;28;45228;-61
2022/04/11 03:21:08;;;;;;;;;2.00;2.00;;;;;10.90;43.70;100876.53;5061934;28;45323;-61
2022/04/11 03:23:33;;;;;;;;;2.00;2.00;;;;;10.85;43.60;100870.47;5053330;28;45180;-61
2022/04/11 03:25:59;;;;;;;;;3.00;3.00;;;;;10.92;43.70;100888.03;5059013;28;45398;-61
2022/04/11 03:28:24;;;;;;;;;2.50;2.50;;;;;10.85;43.83;100878.47;5056047;28;46979;-61
2022/04/11 03:30:49;;;;;;;;;3.75;3.00;;;;;10.86;43.77;100874.00;5058546;28;45657;-61
2022/04/11 03:33:15;;;;;;;;;3.75;2.25;;;;;10.85;43.91;100875.81;5061956;28;45556;-61
2022/04/11 03:35:40;;;;;;;;;5.50;4.00;;;;;10.91;43.86;100888.13;5062302;28;45393;-61
2022/04/11 03:38:05;;;;;;;;;5.25;3.00;;;;;10.92;43.65;100892.53;5060365;28;45996;-61
2022/04/11 03:40:31;;;;;;;;;4.25;4.25;;;;;10.92;43.88;100889.84;5048910;28;45346;-61
2022/04/11 03:42:56;;;;;;;;;2.50;2.50;;;;;10.92;44.08;100892.53;5062386;28;45366;-61
2022/04/11 03:45:21;;;;;;;;;3.00;3.00;;;;;10.89;44.13;100880.16;5062267;28;46194;-61
2022/04/11 03:47:47;;;;;;;;;3.00;3.00;;;;;10.86;43.50;100864.22;5060825;28;45348;-61
2022/04/11 03:50:12;;;;;;;;;2.50;2.50;;;;;10.90;43.50;100867.66;5077913;28;45405;-61
2022/04/11 03:52:38;;;;;;;;;3.00;3.00;;;;;10.89;43.85;100863.22;5061950;28;45434;-61
2022/04/11 03:55:04;;;;;;;;;2.75;2.75;;;;;10.85;43.65;100856.25;5061773;28;45398;-61
2022/04/11 03:57:30;;;;;;;;;4.50;3.00;;;;;10.88;43.90;100856.16;5062026;28;45440;-61
2022/04/11 03:59:55;;;;;;;;;3.00;2.50;;;;;10.88;43.55;100854.34;5057862;28;46076;-61
2022/04/11 04:02:21;;;;;;;;;3.00;3.00;;;;;10.87;43.61;100860.59;5062108;28;45439;-61
2022/04/11 04:04:46;;;;;;;;;3.50;2.75;;;;;10.84;43.57;100839.38;5061779;28;45577;-61
2022/04/11 04:07:12;;;;;;;;;2.25;2.25;;;;;10.84;43.88;100836.69;5061603;28;45249;-61
2022/04/11 04:09:38;;;;;;;;;3.25;3.25;;;;;10.91;43.65;100843.59;5059847;28;45347;-61
2022/04/11 04:12:04;;;;;;;;;4.00;3.00;;;;;10.90;44.02;100840.97;5062111;28;45433;-61
2022/04/11 04:14:30;;;;;;;;;4.25;3.50;;;;;10.89;43.33;100836.53;5058605;28;46834;-61
2022/04/11 04:16:58;;;;;;;;;3.00;2.00;;;;;10.86;43.58;100834.84;5053605;28;45269;-61
2022/04/11 04:19:24;;;;;;;;;8.25;3.50;;;;;10.85;43.70;100841.09;5061707;28;45371;-61
2022/04/11 04:21:50;;;;;;;;;2.50;2.00;;;;;10.83;44.09;100834.06;5061644;28;45540;-61
2022/04/11 04:24:15;;;;;;;;;3.00;3.00;;;;;10.79;43.73;100827.06;5060921;28;46140;-61
2022/04/11 04:26:41;;;;;;;;;4.00;2.75;;;;;10.75;43.40;100835.16;5061418;28;45445;-61
2022/04/11 04:29:06;;;;;;;;;2.75;2.75;;;;;10.72;43.71;100829.94;5061366;28;45302;-61
2022/04/11 04:31:31;;;;;;;;;2.25;2.25;;;;;10.73;43.76;100833.50;5061375;28;45305;-61
2022/04/11 04:33:57;;;;;;;;;4.00;4.00;;;;;10.71;44.00;100825.53;5061169;28;45834;-61
2022/04/11 04:36:22;;;;;;;;;4.00;3.00;;;;;10.64;43.54;100817.75;5061372;28;45309;-61
2022/04/11 04:38:48;;;;;;;;;3.75;3.75;;;;;10.60;43.69;100811.63;5060410;28;45156;-61
2022/04/11 04:41:13;;;;;;;;;3.25;3.25;;;;;10.62;43.76;100806.25;5049100;28;45289;-61
2022/04/11 04:43:38;;;;;;;;;2.00;2.00;;;;;10.61;44.02;100810.72;5057102;28;47247;-61
2022/04/11 04:46:04;;;;;;;;;2.75;2.75;;;;;10.56;44.16;100818.00;5056106;28;45305;-61
2022/04/11 04:48:29;;;;;;;;;3.25;3.25;;;;;10.54;44.21;100812.72;5061222;28;45206;-61
2022/04/11 04:50:54;;;;;;;;;2.25;2.00;;;;;10.57;43.60;100811.72;5061284;28;45468;-61
2022/04/11 04:53:20;;;;;;;;;4.50;3.75;;;;;10.55;44.28;100810.91;5060851;28;45439;-61
2022/04/11 04:55:45;;;;;;;;;5.00;4.00;;;;;10.53;44.04;100813.63;5061095;28;45386;-61
2022/04/11 04:58:10;;;;;;;;;1.00;1.00;;;;;10.61;44.15;100824.06;5060905;28;45307;-61
2022/04/11 05:00:36;;;;;;;;;3.00;3.00;;;;;10.57;43.89;100830.41;5060842;28;45368;-61
2022/04/11 05:03:01;;;;;;;;;3.00;2.00;;;;;10.56;43.93;100834.03;5060925;28;46369;-61
2022/04/11 05:05:27;;;;;;;;;3.00;3.00;;;;;10.51;43.83;100834.16;5061079;28;45318;-61
2022/04/11 05:07:52;;;;;;;;;2.00;1.00;;;;;10.48;43.86;100852.06;5060619;28;45378;-61
2022/04/11 05:10:17;;;;;;;;;4.75;4.00;;;;;10.41;44.44;100851.38;5061207;28;45336;-61
2022/04/11 05:12:47;;;;;;;;;2.75;2.75;;;;;10.41;44.44;100854.03;5060547;28;45311;-61
2022/04/11 05:15:13;;;;;;;;;3.00;3.00;;;;;10.40;44.55;100848.75;5056077;28;45223;-61
2022/04/11 05:17:39;;;;;;;;;3.75;3.00;;;;;10.42;44.61;100841.56;5056162;28;45231;-61
2022/04/11 05:20:06;;;;;;;;;4.00;3.00;;;;;10.42;44.00;100841.56;5059110;28;45287;-61
2022/04/11 05:22:32;;;;;;;;;3.00;3.00;;;;;10.38;44.58;100830.13;5075718;28;47273;-61
2022/04/11 05:24:57;;;;;;;;;5.00;5.00;;;;;10.41;44.27;100831.78;5060758;28;45298;-61
2022/04/11 05:27:23;;;;;;;;;5.75;3.25;;;;;10.37;43.79;100828.34;5060048;28;45228;-61
2022/04/11 05:29:49;;;;;;;;;3.25;3.25;;;;;10.32;43.92;100825.84;5060847;28;45461;-61
2022/04/11 05:32:14;;;;;;;;;6.25;3.50;;;;;10.26;44.20;100815.31;5048054;28;46102;-61
2022/04/11 05:34:39;;;;;;;;;4.50;4.00;;;;;10.25;44.57;100829.56;5060340;28;45391;-61
2022/04/11 05:37:06;;;;;;;;;3.00;3.00;;;;;10.26;44.50;100825.13;5058725;28;45480;-61
2022/04/11 05:39:31;;;;;;;;;6.75;2.50;;;;;10.24;44.47;100821.59;5060188;28;45226;-61
2022/04/11 05:41:57;;;;;;;;;3.00;3.00;;;;;10.23;44.93;100818.06;5060034;28;45470;-61
2022/04/11 05:44:22;;;;;;;;;4.50;4.00;;;;;10.20;44.33;100811.00;5059942;28;45275;-61
2022/04/11 05:46:52;;;;;;;;;5.00;5.00;;;;;10.20;44.11;100812.81;5058493;28;45426;-61
2022/04/11 05:49:19;;;;;;;;;7.00;5.00;;;;;10.14;44.59;100818.31;5051554;28;45467;-61
2022/04/11 05:51:45;;;;;;;;;9.25;6.75;;;;;10.11;44.78;100824.63;5060098;28;45688;-61
2022/04/11 05:54:10;;;;;;;;;2.00;2.00;;;;;10.01;44.69;100826.69;5060065;28;45361;-61
2022/04/11 05:56:36;;;;;;;;;3.50;3.50;;;;;10.02;44.88;100831.13;5059987;28;45354;-61
2022/04/11 05:59:03;;;;;;;;;3.25;3.00;;;;;10.05;44.55;100834.63;5059496;28;45615;-61
2022/04/11 06:01:29;;;;;;;;;3.00;3.00;;;;;10.08;44.79;100837.19;5058219;28;45372;-61
2022/04/11 06:03:55;;;;;;;;;3.00;3.00;;;;;10.16;44.48;100837.84;5056712;28;45758;-66
2022/04/11 06:06:20;;;;;;;;;3.00;3.00;;;;;10.17;44.56;100836.91;5058418;28;45328;-66
2022/04/11 06:08:46;;;;;;;;;4.00;4.00;;;;;10.12;44.86;100820.16;5058589;28;45535;-66
2022/04/11 06:11:12;;;;;;;;;4.00;4.00;;;;;10.20;44.52;100835.03;5053809;28;45338;-66
2022/04/11 06:13:37;;;;;;;;;8.50;7.00;;;;;10.23;44.58;100830.53;5056331;28;45427;-65
2022/04/11 06:16:04;;;;;;;;;5.00;5.00;;;;;10.26;44.33;100830.47;5059213;28;45232;-66
2022/04/11 06:18:30;;;;;;;;;3.00;3.00;;;;;10.26;44.67;100828.66;5075730;27;45834;-66
2022/04/11 06:20:55;;;;;;;;;6.25;4.25;;;;;10.32;45.04;100824.94;5059935;28;45327;-65
2022/04/11 06:23:20;;;;;;;;;5.00;5.00;;;;;10.36;44.73;100838.16;5057262;28;45480;-66
2022/04/11 06:25:46;;;;;;;;;4.00;4.00;;;;;10.30;44.30;100829.44;5052607;28;45362;-66
2022/04/11 06:28:11;;;;;;;;;5.75;4.00;;;;;10.30;44.93;100834.75;5052386;28;45492;-66
2022/04/11 06:30:36;;;;;;;;;4.50;2.75;;;;;10.38;43.96;100843.44;5058950;28;45295;-65
2022/04/11 06:33:02;;;;;;;;;4.00;4.00;;;;;10.38;44.38;100836.31;5055364;28;45272;-65
2022/04/11 06:35:27;;;;;;;;;4.00;4.00;;;;;10.32;44.79;100824.94;5084429;27;45584;-65
2022/04/11 06:37:52;;;;;;;;;4.25;4.25;;;;;10.41;44.47;100827.34;5055890;28;45382;-65
2022/04/11 06:40:18;;;;;;;;;5.00;4.00;;;;;10.43;44.36;100821.97;5059344;28;45268;-65
2022/04/11 06:42:43;;;;;;;;;4.25;4.25;;;;;10.47;44.86;100812.94;5059213;28;45369;-66
2022/04/11 06:45:09;;;;;;;;;4.50;4.50;;;;;10.48;44.67;100799.56;5058161;28;45390;-66
2022/04/11 06:47:34;;;;;;;;;4.00;3.50;;;;;10.52;44.60;100798.56;5058886;28;45614;-66
2022/04/11 06:49:59;;;;;;;;;4.00;4.00;;;;;10.52;44.30;100801.22;5057827;28;47261;-66
2022/04/11 06:52:25;;;;;;;;;3.25;3.25;;;;;10.53;44.71;100799.41;5056219;28;45487;-65
2022/04/11 06:54:50;;;;;;;;;4.00;4.00;;;;;10.50;44.55;100799.50;5052745;28;45745;-67
2022/04/11 06:57:15;;;;;;;;;7.25;5.50;;;;;10.44;44.48;100797.00;5054062;28;45526;-60
2022/04/11 06:59:41;;;;;;;;;5.00;5.00;;;;;10.44;44.89;100791.69;5058286;28;47054;-60
2022/04/11 07:02:07;;;;;;;;;6.25;4.25;;;;;10.42;44.70;100782.84;5055096;28;45444;-61
2022/04/11 07:04:32;;;;;;;;;4.25;4.25;;;;;10.45;44.70;100782.75;5060210;28;45455;-61
2022/04/11 07:06:58;;;;;;;;;4.25;4.25;;;;;10.53;45.07;100789.59;5056982;28;45378;-61
2022/04/11 07:09:23;;;;;;;;;4.75;4.75;;;;;10.53;44.45;100786.94;5073212;28;46996;-61
2022/04/11 07:11:48;;;;;;;;;3.50;3.50;;;;;10.54;44.69;100782.47;5058023;28;45466;-61
2022/04/11 07:14:14;;;;;;;;;4.25;3.25;;;;;10.51;44.65;100777.25;5061422;28;45700;-61
2022/04/11 07:16:39;;;;;;;;;4.50;4.50;;;;;10.47;44.48;100765.75;5062133;28;45353;-61
2022/04/11 07:19:06;;;;;;;;;4.25;3.75;;;;;10.46;44.85;100766.72;5061672;28;45357;-61
2022/04/11 07:21:32;;;;;;;;;4.75;4.25;;;;;10.43;44.89;100764.13;5060029;28;45336;-61
2022/04/11 07:23:57;;;;;;;;;7.25;4.50;;;;;10.52;45.07;100758.50;5061623;28;45469;-61
2022/04/11 07:26:23;;;;;;;;;6.00;6.00;;;;;10.50;44.74;100754.13;5052227;28;45148;-61
2022/04/11 07:28:48;;;;;;;;;7.50;5.00;;;;;10.50;45.01;100757.66;5061591;28;46016;-61
2022/04/11 07:31:13;;;;;;;;;4.50;4.50;;;;;10.53;45.08;100748.69;5061732;28;45793;-61
2022/04/11 07:33:39;;;;;;;;;3.00;3.00;;;;;10.48;44.74;100740.84;5061409;28;45230;-62
2022/04/11 07:36:04;;;;;;;;;5.25;5.00;;;;;10.60;44.72;100752.03;5061525;28;45497;-61
2022/04/11 07:38:30;;;;;;;;;4.00;3.25;;;;;10.63;44.48;100752.81;5060715;28;46477;-63
2022/04/11 07:40:55;;;;;;;;;5.75;5.25;;;;;10.65;44.76;100739.41;5046755;28;45553;-62
2022/04/11 07:43:21;;;;;;;;;5.50;5.50;;;;;10.73;45.14;100746.25;5059733;28;45741;-63
2022/04/11 07:45:48;;;;;;;;;4.00;4.00;;;;;10.75;44.85;100746.19;5058921;28;45509;-62
2022/04/11 07:48:14;;;;;;;;;3.75;3.75;;;;;10.84;45.26;100755.69;5053255;28;45479;-61
2022/04/11 07:50:39;;;;;;;;;5.00;4.00;;;;;10.88;44.62;100752.00;5051892;28;45457;-61
2022/04/11 07:53:05;;;;;;;;;6.00;4.00;;;;;10.95;44.55;100750.88;5059540;28;45574;-61
2022/04/11 07:55:31;;;;;;;;;5.00;4.50;;;;;10.99;44.77;100749.81;5056208;28;45748;-61
2022/04/11 07:57:57;;;;;;;;;6.25;4.25;;;;;11.06;44.33;100745.16;5059173;28;47429;-61
2022/04/11 08:00:22;;;;;;;;;10.00;8.00;;;;;11.08;44.80;100733.50;5055423;28;45512;-62
2022/04/11 08:02:56;;;;;;;;;7.00;5.00;;;;;11.07;44.28;100729.06;5060553;28;45255;-61
2022/04/11 08:05:23;;;;;;;;;9.50;8.00;;;;;11.09;44.95;100729.91;5056731;28;45608;-62
2022/04/11 08:07:50;;;;;;;;;5.50;5.50;;;;;11.18;44.67;100731.38;5055774;28;45460;-64
2022/04/11 08:10:16;;;;;;;;;6.25;5.25;;;;;11.23;45.18;100732.09;5072505;28;45767;-62
2022/04/11 08:12:59;;;;;;;;;4.25;4.25;;;;;11.32;44.61;100726.41;5054192;28;45734;-61
2022/04/11 08:15:26;;;;;;;;;6.25;6.25;;;;;11.40;44.74;100719.94;5055060;28;45691;-61
2022/04/11 08:17:54;;;;;;;;;5.00;4.75;;;;;11.46;44.75;100720.59;5057716;28;45545;-62
2022/04/11 08:20:20;;;;;;;;;5.00;5.00;;;;;11.51;44.82;100723.09;5050950;28;45374;-61
2022/04/11 08:22:45;;;;;;;;;3.50;3.50;;;;;11.59;44.63;100720.13;5060823;28;45400;-62
2022/04/11 08:25:11;;;;;;;;;3.00;3.00;;;;;11.69;44.67;100724.19;5049459;28;45533;-61
2022/04/11 08:27:36;;;;;;;;;4.25;4.25;;;;;11.72;44.84;100715.19;5043897;28;45394;-62
2022/04/11 08:30:03;;;;;;;;;3.25;3.00;;;;;11.77;44.84;100716.75;5057891;28;45471;-61
2022/04/11 08:32:40;;;;;;;;;4.00;3.25;;;;;11.89;44.53;100720.78;5059231;28;45603;-62
2022/04/11 08:35:06;;;;;;;;;4.25;4.25;;;;;11.93;44.89;100711.75;5059899;28;45528;-62
2022/04/11 08:37:36;;;;;;;;;4.50;4.00;;;;;12.00;44.44;100715.06;5045307;28;47286;-61
2022/04/11 08:40:03;;;;;;;;;4.00;4.00;;;;;12.04;44.41;100703.28;5055331;28;45713;-65
2022/04/11 08:42:29;;;;;;;;;5.75;4.00;;;;;12.12;44.22;100708.34;5057738;28;45364;-67
2022/04/11 08:44:57;;;;;;;;;6.00;4.00;;;;;12.20;44.17;100707.13;5043354;28;45406;-65
2022/04/11 08:47:23;;;;;;;;;5.00;4.00;;;;;12.22;44.37;100697.22;5045685;28;45839;-66
2022/04/11 08:49:49;;;;;;;;;3.50;2.00;;;;;12.28;44.13;100700.56;5053028;28;45896;-68
2022/04/11 08:52:16;;;;;;;;;6.25;5.00;;;;;12.38;44.07;100689.44;5058203;28;45339;-67
2022/04/11 08:54:41;;;;;;;;;6.00;4.00;;;;;12.45;44.28;100684.72;5052028;28;45316;-66
2022/04/11 08:57:07;;;;;;;;;5.25;5.00;;;;;12.48;44.18;100681.03;5047655;28;47038;-66
2022/04/11 08:59:33;;;;;;;;;5.00;4.00;;;;;12.55;43.98;100674.50;5059010;28;45372;-66
2022/04/11 09:01:58;;;;;;;;;4.00;4.00;;;;;12.64;44.11;100683.94;5051857;28;45512;-66
2022/04/11 09:04:23;;;;;;;;;3.50;3.00;;;;;12.71;43.91;100678.28;5051350;28;45357;-66
2022/04/11 09:06:56;;;;;;;;;4.50;4.00;;;;;12.75;43.97;100673.66;5069903;28;47917;-66
2022/04/11 09:09:40;;;;;;;;;5.00;3.75;;;;;12.83;43.79;100667.97;5058648;28;45378;-66
2022/04/11 09:12:08;;;;;;;;;4.00;4.00;;;;;12.92;43.65;100665.75;5048754;28;45750;-67
2022/04/11 09:14:35;;;;;;;;;3.00;3.00;;;;;12.95;43.19;100660.28;5057139;28;45575;-66
2022/04/11 09:17:00;;;;;;;;;7.25;4.25;;;;;13.01;43.32;100667.16;5058097;28;46055;-66
2022/04/11 09:19:29;;;;;;;;;6.00;5.00;;;;;13.10;42.99;100664.09;5051246;28;45409;-66
2022/04/11 09:21:54;;;;;;;;;3.00;3.00;;;;;13.15;43.27;100671.94;5047099;28;45386;-66
2022/04/11 09:24:22;;;;;;;;;4.50;3.00;;;;;13.20;43.12;100664.56;5049733;28;45542;-67
2022/04/11 09:26:51;;;;;;;;;4.00;4.00;;;;;13.26;42.73;100671.44;5047438;28;46152;-65
2022/04/11 09:29:17;;;;;;;;;4.75;3.00;;;;;13.29;43.53;100664.13;5055351;28;45888;-65
2022/04/11 09:31:43;;;;;;;;;7.00;4.00;;;;;13.36;43.21;100645.13;5055308;28;45665;-66
2022/04/11 09:34:20;;;;;;;;;6.25;5.00;;;;;13.39;42.80;100631.59;5059101;28;45707;-65
2022/04/11 09:36:46;;;;;;;;;4.00;4.00;;;;;13.45;42.74;100639.38;5054789;28;45403;-66
2022/04/11 09:39:11;;;;;;;;;7.00;6.00;;;;;13.50;42.89;100635.50;5059212;28;45322;-65
2022/04/11 09:41:42;;;;;;;;;4.25;3.25;;;;;13.58;42.29;100640.53;5059668;28;45262;-66
2022/04/11 09:44:25;;;;;;;;;3.00;3.00;;;;;13.62;42.41;100634.06;5058950;28;45305;-66
2022/04/11 09:46:52;;;;;;;;;3.50;3.50;;;;;13.69;42.52;100635.50;5044904;28;46259;-65
2022/04/11 09:49:18;;;;;;;;;3.25;3.25;;;;;13.76;42.79;100632.56;5058679;28;45807;-66
2022/04/11 09:52:07;;;;;;;;;4.25;3.25;;;;;13.80;42.76;100620.72;5056336;28;45501;-66
2022/04/11 09:54:33;;;;;;;;;3.00;3.00;;;;;13.95;42.75;100630.75;5057173;28;44893;-66
2022/04/11 09:57:00;;;;;;;;;3.00;2.50;;;;;13.99;42.60;100616.22;5048246;28;45462;-67
2022/04/11 09:59:26;;;;;;;;;5.75;3.25;;;;;14.02;42.05;100613.38;5053679;28;45593;-66
2022/04/11 10:01:53;;;;;;;;;3.75;3.75;;;;;14.15;41.88;100615.44;5053991;28;45903;-69
2022/04/11 10:04:19;;;;;;;;;3.00;3.00;;;;;14.26;41.99;100637.28;5048023;28;45450;-68
2022/04/11 10:06:44;;;;;;;;;2.25;2.25;;;;;14.33;41.61;100630.66;5053665;28;46380;-67
2022/04/11 10:09:12;;;;;;;;;2.00;2.00;;;;;14.38;41.58;100628.63;5054862;28;45472;-67
2022/04/11 10:11:38;;;;;;;;;2.00;2.00;;;;;14.44;41.28;100614.00;5051143;28;45441;-65
2022/04/11 10:14:06;;;;;;;;;3.50;3.00;;;;;14.46;41.10;100615.66;5056417;28;45390;-68
2022/04/11 10:16:31;;;;;;;;;4.00;3.00;;;;;14.53;41.08;100629.66;5056935;28;46379;-66
2022/04/11 10:19:04;;;;;;;;;6.00;3.00;;;;;14.55;40.88;100621.50;5058715;28;45487;-69
2022/04/11 10:21:31;;;;;;;;;3.50;2.25;;;;;14.64;40.82;100629.16;5050404;28;45367;-68
2022/04/11 10:24:05;;;;;;;;;3.00;3.00;;;;;14.68;41.30;100619.13;5058829;28;45414;-68
2022/04/11 10:26:42;;;;;;;;;3.00;2.00;;;;;14.77;41.21;100618.66;5056842;28;45524;-68
2022/04/11 10:29:37;;;;;;;;;5.00;4.00;;;;;14.84;40.86;100619.19;5061918;28;45359;-69
2022/04/11 10:32:07;;;;;;;;;5.75;4.00;;;;;14.84;40.60;100611.13;5067515;27;45758;-68
2022/04/11 10:35:04;;;;;;;;;4.00;4.00;;;;;14.90;40.72;100610.78;5054497;27;45362;-68
2022/04/11 10:37:39;;;;;;;;;3.75;3.00;;;;;14.97;40.85;100602.34;5063114;28;46284;-68
2022/04/11 10:40:16;;;;;;;;;3.00;3.00;;;;;15.07;41.06;100589.28;5058509;28;45533;-68
2022/04/11 10:43:00;;;;;;;;;3.00;3.00;;;;;15.16;41.07;100593.28;5059385;28;45559;-68
2022/04/11 10:45:35;;;;;;;;;3.25;3.25;;;;;15.19;41.19;100583.22;5059078;28;45656;-68
2022/04/11 10:48:02;;;;;;;;;3.00;3.00;;;;;15.28;40.97;100586.38;5056028;28;46887;-66
2022/04/11 10:50:34;;;;;;;;;3.75;3.75;;;;;15.33;40.81;100574.41;5051729;28;45619;-66
2022/04/11 10:53:15;;;;;;;;;3.75;3.75;;;;;15.38;40.68;100584.91;5058772;28;45273;-66
2022/04/11 10:55:57;;;;;;;;;4.25;4.25;;;;;15.40;40.29;100583.00;5059479;28;45311;-67
2022/04/11 10:58:38;;;;;;;;;4.00;4.00;;;;;15.44;40.47;100578.34;5055921;28;45544;-69
2022/04/11 11:01:04;;;;;;;;;3.25;3.25;;;;;15.48;40.58;100580.75;5059158;28;45324;-69
2022/04/11 11:03:29;;;;;;;;;3.75;3.00;;;;;15.47;40.86;100554.84;5056159;28;45465;-69
2022/04/11 11:05:54;;;;;;;;;6.00;5.00;;;;;15.61;40.79;100563.97;5047513;28;45244;-65
2022/04/11 11:08:21;;;;;;;;;4.00;3.75;;;;;15.68;40.68;100555.44;5055237;28;45322;-69
2022/04/11 11:10:49;;;;;;;;;4.00;4.00;;;;;15.73;40.47;100556.03;5058885;28;45675;-69
2022/04/11 11:13:41;;;;;;;;;2.25;2.25;;;;;15.78;40.25;100552.25;5058899;28;45395;-69
2022/04/11 11:16:06;;;;;;;;;3.00;3.00;;;;;15.83;40.17;100563.63;5056887;28;45486;-69
2022/04/11 11:18:52;;;;;;;;;4.50;3.25;;;;;15.88;40.13;100558.84;5055994;28;46274;-69
2022/04/11 11:21:17;;;;;;;;;3.00;3.00;;;;;15.92;39.91;100569.38;5051032;27;45225;-69
2022/04/11 11:24:02;;;;;;;;;3.25;3.25;;;;;15.98;40.01;100567.28;5058436;28;45394;-69